Temp: 0.3°C   Baro: 1049.5mb
  Wind: 0.0mph   Dir: NW (316°)
  Rain: 0.0mm (0.0mm/hr)
  Solar: 0W/m2  Hum: 93%
 
Bath Spa Weather Historical Data
Daily Summary for October 28, 2019 Units:  Metric    English   Both
Next Day »
Daily Weekly Monthly Yearly Custom
  High: Low: Average:
Temperature: 10.4 °C 0.5 °C 5.5 °C
Dew Point: 6.8 °C -0.4 °C 3.6 °C
Humidity: 95% 74% 88%
Wind Speed: 17.7km/h 0.0km/h 2.9km/h
Wind Gust: 22.5km/h - -
Wind direction- - East
Pressure: 1026.0 hPa 1023.2 hPa -
Precipitation: 0.3 mm    
Historical Graphs
 
 
Tabular Data for October 28, 2019
Time Temperature Dew Point Pressure Wind direction Wind Speed Wind Gust Humidity Rainfall Rate (Hourly) solar
00:00 2.3 °C 1.3 °C 1026.0 hPa Calm     93% 0.0 mm 0.00 W/m2
00:05 2.2 °C 1.2 °C 1026.0 hPa Calm     93% 0.0 mm 0.00 W/m2
00:10 2.2 °C 1.2 °C 1026.0 hPa Calm   1.6 km/h 93% 0.0 mm 0.00 W/m2
00:15 2.2 °C 1.2 °C 1026.0 hPa Calm     93% 0.0 mm 0.00 W/m2
00:20 2.1 °C 1.1 °C 1026.0 hPa Calm     93% 0.0 mm 0.00 W/m2
00:25 2.1 °C 1.1 °C 1026.0 hPa Calm     93% 0.0 mm 0.00 W/m2
00:30 1.9 °C 0.9 °C 1026.0 hPa Calm     93% 0.0 mm 0.00 W/m2
00:35 1.9 °C 0.9 °C 1026.0 hPa Calm     93% 0.0 mm 0.00 W/m2
00:40 1.9 °C 0.9 °C 1026.0 hPa Calm     93% 0.0 mm 0.00 W/m2
00:45 1.9 °C 0.9 °C 1026.0 hPa Calm     93% 0.0 mm 0.00 W/m2
00:50 1.9 °C 0.9 °C 1026.0 hPa Calm     93% 0.0 mm 0.00 W/m2
00:55 1.9 °C 0.9 °C 1026.0 hPa Calm     93% 0.0 mm 0.00 W/m2
01:00 1.8 °C 0.8 °C 1025.6 hPa Calm     93% 0.0 mm 0.00 W/m2
01:05 1.8 °C 0.8 °C 1026.0 hPa Calm     93% 0.0 mm 0.00 W/m2
01:10 1.8 °C 0.8 °C 1025.6 hPa Calm     93% 0.0 mm 0.00 W/m2
01:15 1.7 °C 0.7 °C 1025.6 hPa Calm     93% 0.0 mm 0.00 W/m2
01:20 1.6 °C 0.6 °C 1025.6 hPa Calm     93% 0.0 mm 0.00 W/m2
01:25 1.5 °C 0.5 °C 1025.6 hPa Calm     93% 0.0 mm 0.00 W/m2
01:30 1.4 °C 0.4 °C 1025.6 hPa Calm     93% 0.0 mm 0.00 W/m2
01:35 1.4 °C 0.4 °C 1025.6 hPa Calm     93% 0.0 mm 0.00 W/m2
01:40 1.4 °C 0.4 °C 1025.6 hPa Calm     93% 0.0 mm 0.00 W/m2
01:45 1.4 °C 0.4 °C 1025.6 hPa Calm     93% 0.0 mm 0.00 W/m2
01:50 1.3 °C 0.3 °C 1025.6 hPa Calm   1.6 km/h 93% 0.3 mm 0.00 W/m2
01:55 1.3 °C 0.3 °C 1025.6 hPa Calm     93% 0.3 mm 0.00 W/m2
02:00 1.3 °C 0.3 °C 1025.6 hPa Calm     93% 0.3 mm 0.00 W/m2
02:05 1.3 °C 0.3 °C 1025.6 hPa Calm     93% 0.3 mm 0.00 W/m2
02:10 1.3 °C 0.3 °C 1025.6 hPa Calm     93% 0.3 mm 0.00 W/m2
02:15 1.3 °C 0.3 °C 1025.6 hPa Calm     93% 0.3 mm 0.00 W/m2
02:20 1.2 °C 0.2 °C 1025.6 hPa Calm     93% 0.3 mm 0.00 W/m2
02:25 1.2 °C 0.2 °C 1025.6 hPa Calm     93% 0.3 mm 0.00 W/m2
02:30 1.2 °C 0.2 °C 1025.6 hPa Calm     93% 0.3 mm 0.00 W/m2
02:35 1.1 °C 0.2 °C 1025.6 hPa Calm     94% 0.3 mm 0.00 W/m2
02:40 1.0 °C 0.1 °C 1025.6 hPa Calm     94% 0.3 mm 0.00 W/m2
02:45 1.1 °C 0.2 °C 1025.6 hPa Calm     94% 0.3 mm 0.00 W/m2
02:50 1.1 °C 0.2 °C 1025.6 hPa Calm     94% 0.0 mm 0.00 W/m2
02:55 1.0 °C 0.1 °C 1025.6 hPa Calm     94% 0.0 mm 0.00 W/m2
03:00 0.9 °C 0.0 °C 1025.6 hPa Calm     94% 0.0 mm 0.00 W/m2
03:05 0.9 °C 0.0 °C 1025.6 hPa Calm     94% 0.0 mm 0.00 W/m2
03:10 0.9 °C -0.1 °C 1025.3 hPa Calm     93% 0.0 mm 0.00 W/m2
03:15 0.8 °C -0.1 °C 1025.6 hPa Calm     94% 0.0 mm 0.00 W/m2
03:20 0.8 °C -0.1 °C 1025.3 hPa Calm     94% 0.0 mm 0.00 W/m2
03:25 0.8 °C -0.1 °C 1025.3 hPa Calm     94% 0.0 mm 0.00 W/m2
03:30 0.8 °C -0.1 °C 1025.3 hPa Calm     94% 0.0 mm 0.00 W/m2
03:35 0.7 °C -0.2 °C 1025.6 hPa Calm     94% 0.0 mm 0.00 W/m2
03:40 0.7 °C -0.2 °C 1025.3 hPa Calm     94% 0.0 mm 0.00 W/m2
03:45 0.7 °C -0.2 °C 1025.3 hPa Calm     94% 0.0 mm 0.00 W/m2
03:50 0.7 °C -0.2 °C 1025.3 hPa Calm     94% 0.0 mm 0.00 W/m2
03:55 0.7 °C -0.2 °C 1025.3 hPa Calm     94% 0.0 mm 0.00 W/m2
04:00 0.7 °C -0.2 °C 1025.3 hPa Calm     94% 0.0 mm 0.00 W/m2
04:05 0.7 °C -0.2 °C 1025.6 hPa Calm     94% 0.0 mm 0.00 W/m2
04:10 0.6 °C -0.3 °C 1025.3 hPa Calm     94% 0.0 mm 0.00 W/m2
04:15 0.5 °C -0.4 °C 1025.6 hPa Calm     94% 0.0 mm 0.00 W/m2
04:20 0.5 °C -0.4 °C 1025.6 hPa Calm     94% 0.0 mm 0.00 W/m2
04:25 0.5 °C -0.4 °C 1025.3 hPa Calm     94% 0.0 mm 0.00 W/m2
04:30 0.5 °C -0.4 °C 1025.3 hPa Calm     94% 0.0 mm 0.00 W/m2
04:35 0.6 °C -0.3 °C 1025.3 hPa Calm     94% 0.0 mm 0.00 W/m2
04:40 0.6 °C -0.3 °C 1025.6 hPa Calm     94% 0.0 mm 0.00 W/m2
04:45 0.5 °C -0.4 °C 1025.6 hPa Calm     94% 0.0 mm 0.00 W/m2
04:50 0.5 °C -0.4 °C 1025.6 hPa Calm     94% 0.0 mm 0.00 W/m2
04:55 0.5 °C -0.4 °C 1025.6 hPa Calm     94% 0.0 mm 0.00 W/m2
05:00 0.5 °C -0.4 °C 1025.6 hPa Calm     94% 0.0 mm 0.00 W/m2
05:05 0.5 °C -0.4 °C 1025.6 hPa Calm     94% 0.0 mm 0.00 W/m2
05:10 0.6 °C -0.3 °C 1025.3 hPa Calm     94% 0.0 mm 0.00 W/m2
05:15 0.5 °C -0.4 °C 1025.3 hPa Calm     94% 0.0 mm 0.00 W/m2
05:20 0.5 °C -0.4 °C 1025.3 hPa Calm     94% 0.0 mm 0.00 W/m2
05:25 0.6 °C -0.3 °C 1025.3 hPa Calm     94% 0.0 mm 0.00 W/m2
05:30 0.6 °C -0.3 °C 1025.3 hPa Calm     94% 0.0 mm 0.00 W/m2
05:35 0.6 °C -0.3 °C 1025.3 hPa Calm     94% 0.0 mm 0.00 W/m2
05:40 0.6 °C -0.3 °C 1025.3 hPa Calm     94% 0.0 mm 0.00 W/m2
05:45 0.6 °C -0.3 °C 1025.3 hPa Calm     94% 0.0 mm 0.00 W/m2
05:50 0.7 °C -0.2 °C 1025.3 hPa Calm     94% 0.0 mm 0.00 W/m2
05:55 0.6 °C -0.3 °C 1024.9 hPa Calm     94% 0.0 mm 0.00 W/m2
06:00 0.7 °C -0.2 °C 1024.9 hPa Calm     94% 0.0 mm 0.00 W/m2
06:05 0.7 °C -0.2 °C 1024.9 hPa Calm     94% 0.0 mm 0.00 W/m2
06:10 0.7 °C -0.2 °C 1024.9 hPa Calm     94% 0.0 mm 0.00 W/m2
06:15 0.6 °C -0.3 °C 1024.9 hPa Calm     94% 0.0 mm 0.00 W/m2
06:20 0.7 °C -0.2 °C 1024.9 hPa Calm     94% 0.0 mm 0.00 W/m2
06:25 0.7 °C -0.2 °C 1025.3 hPa Calm     94% 0.0 mm 0.00 W/m2
06:30 0.7 °C -0.2 °C 1024.9 hPa Calm   1.6 km/h 94% 0.0 mm 0.00 W/m2
06:35 0.8 °C -0.1 °C 1024.9 hPa Calm     94% 0.0 mm 0.00 W/m2
06:40 0.8 °C -0.1 °C 1024.9 hPa Calm     94% 0.0 mm 0.00 W/m2
06:45 0.9 °C 0.0 °C 1024.9 hPa Calm     94% 0.0 mm 0.00 W/m2
06:50 0.8 °C -0.1 °C 1024.9 hPa Calm     94% 0.0 mm 0.00 W/m2
06:55 0.8 °C -0.1 °C 1024.9 hPa Calm     94% 0.0 mm 5.00 W/m2
07:00 0.8 °C -0.1 °C 1024.9 hPa Calm     94% 0.0 mm 7.00 W/m2
07:05 0.8 °C -0.1 °C 1024.9 hPa Calm     94% 0.0 mm 11.00 W/m2
07:10 0.8 °C -0.1 °C 1024.9 hPa Calm     94% 0.0 mm 14.00 W/m2
07:15 0.7 °C -0.2 °C 1025.3 hPa Calm     94% 0.0 mm 19.00 W/m2
07:20 0.7 °C -0.2 °C 1025.3 hPa Calm     94% 0.0 mm 25.00 W/m2
07:25 0.8 °C -0.1 °C 1025.3 hPa Calm     94% 0.0 mm 30.00 W/m2
07:30 0.8 °C -0.1 °C 1025.3 hPa Calm   1.6 km/h 94% 0.0 mm 35.00 W/m2
07:35 0.9 °C 0.0 °C 1025.3 hPa Calm     94% 0.0 mm 42.00 W/m2
07:40 1.0 °C 0.1 °C 1025.3 hPa Calm     94% 0.0 mm 47.00 W/m2
07:45 1.2 °C 0.3 °C 1025.3 hPa Calm     94% 0.0 mm 49.00 W/m2
07:50 1.2 °C 0.3 °C 1025.6 hPa Calm     94% 0.0 mm 53.00 W/m2
07:55 1.3 °C 0.6 °C 1025.3 hPa Calm     95% 0.0 mm 58.00 W/m2
08:00 1.3 °C 0.6 °C 1025.3 hPa Calm     95% 0.0 mm 62.00 W/m2
08:05 1.4 °C 0.7 °C 1025.3 hPa Calm     95% 0.0 mm 67.00 W/m2
08:10 1.6 °C 0.9 °C 1025.3 hPa Calm     95% 0.0 mm 74.00 W/m2
08:15 1.6 °C 0.9 °C 1025.3 hPa Calm     95% 0.0 mm 83.00 W/m2
08:20 1.8 °C 1.1 °C 1025.3 hPa Calm     95% 0.0 mm 88.00 W/m2
08:25 2.2 °C 1.5 °C 1025.3 hPa Calm   1.6 km/h 95% 0.0 mm 97.00 W/m2
08:30 2.2 °C 1.5 °C 1025.3 hPa Calm     95% 0.0 mm 97.00 W/m2
08:35 2.3 °C 1.6 °C 1025.3 hPa Calm     95% 0.0 mm 100.00 W/m2
08:40 2.5 °C 1.8 °C 1024.9 hPa Calm     95% 0.0 mm 111.00 W/m2
08:45 2.9 °C 2.2 °C 1024.9 hPa Calm   1.6 km/h 95% 0.0 mm 19.00 W/m2
08:50 3.3 °C 2.6 °C 1025.3 hPa Calm   4.8 km/h 95% 0.0 mm 135.00 W/m2
08:55 3.7 °C 3.0 °C 1024.9 hPa Calm   3.2 km/h 95% 0.0 mm 137.00 W/m2
09:00 4.1 °C 3.4 °C 1025.3 hPa North 1.4 km/h 4.8 km/h 95% 0.0 mm 130.00 W/m2
09:05 4.2 °C 3.5 °C 1024.9 hPa Calm   1.6 km/h 95% 0.0 mm 132.00 W/m2
09:10 4.5 °C 3.8 °C 1025.3 hPa Calm   1.6 km/h 95% 0.0 mm 139.00 W/m2
09:15 4.9 °C 4.2 °C 1025.3 hPa Calm     95% 0.0 mm 153.00 W/m2
09:20 5.1 °C 4.4 °C 1025.3 hPa Calm     95% 0.0 mm 169.00 W/m2
09:25 5.7 °C 5.0 °C 1025.3 hPa Calm   3.2 km/h 95% 0.0 mm 167.00 W/m2
09:30 5.8 °C 5.1 °C 1024.9 hPa East 11.1 km/h 11.3 km/h 95% 0.0 mm 165.00 W/m2
09:35 6.0 °C 5.3 °C 1025.3 hPa Calm   4.8 km/h 95% 0.0 mm 171.00 W/m2
09:40 6.1 °C 5.4 °C 1024.9 hPa Calm   1.6 km/h 95% 0.0 mm 163.00 W/m2
09:45 6.4 °C 5.5 °C 1024.9 hPa Calm   1.6 km/h 94% 0.0 mm 167.00 W/m2
09:50 6.4 °C 5.5 °C 1024.9 hPa Calm   3.2 km/h 94% 0.0 mm 174.00 W/m2
09:55 6.4 °C 5.4 °C 1024.9 hPa Calm   3.2 km/h 93% 0.0 mm 206.00 W/m2
10:00 6.9 °C 5.8 °C 1025.3 hPa East 1.4 km/h 1.6 km/h 93% 0.0 mm 214.00 W/m2
10:05 7.1 °C 5.9 °C 1025.3 hPa Calm   6.4 km/h 92% 0.0 mm 174.00 W/m2
10:10 7.0 °C 5.6 °C 1025.3 hPa East 3.2 km/h 6.4 km/h 91% 0.0 mm 169.00 W/m2
10:15 6.9 °C 5.4 °C 1025.3 hPa Calm   3.2 km/h 90% 0.0 mm 174.00 W/m2
10:20 6.8 °C 5.3 °C 1025.3 hPa East 1.4 km/h 3.2 km/h 90% 0.0 mm 195.00 W/m2
10:25 6.9 °C 5.2 °C 1025.3 hPa Calm   3.2 km/h 89% 0.0 mm 178.00 W/m2
10:30 7.0 °C 5.3 °C 1025.3 hPa East 1.4 km/h 4.8 km/h 89% 0.0 mm 181.00 W/m2
10:35 7.2 °C 5.5 °C 1025.3 hPa East 4.7 km/h 4.8 km/h 89% 0.0 mm 193.00 W/m2
10:40 7.3 °C 5.6 °C 1025.3 hPa Calm   1.6 km/h 89% 0.0 mm 227.00 W/m2
10:45 7.2 °C 5.3 °C 1025.3 hPa East 3.2 km/h 6.4 km/h 88% 0.0 mm 244.00 W/m2
10:50 7.4 °C 5.5 °C 1024.9 hPa East 1.4 km/h 6.4 km/h 88% 0.0 mm 241.00 W/m2
10:55 7.7 °C 5.8 °C 1024.9 hPa East 1.4 km/h 3.2 km/h 88% 0.0 mm 258.00 W/m2
11:00 7.8 °C 5.8 °C 1024.9 hPa East 3.2 km/h 8.0 km/h 87% 0.0 mm 232.00 W/m2
11:05 7.7 °C 5.7 °C 1024.9 hPa East 1.4 km/h 4.8 km/h 87% 0.0 mm 206.00 W/m2
11:10 8.2 °C 6.2 °C 1024.9 hPa Calm   4.8 km/h 87% 0.0 mm 199.00 W/m2
11:15 7.9 °C 5.7 °C 1024.9 hPa Calm   1.6 km/h 86% 0.0 mm 197.00 W/m2
11:20 8.2 °C 6.0 °C 1024.9 hPa Calm     86% 0.0 mm 204.00 W/m2
11:25 8.4 °C 6.2 °C 1024.9 hPa East 1.4 km/h 8.0 km/h 86% 0.0 mm 179.00 W/m2
11:30 8.4 °C 6.2 °C 1024.9 hPa Calm   8.0 km/h 86% 0.0 mm 167.00 W/m2
11:35 8.2 °C 5.8 °C 1024.9 hPa NE 11.1 km/h 12.9 km/h 85% 0.0 mm 160.00 W/m2
11:40 8.2 °C 5.8 °C 1024.9 hPa ENE 6.4 km/h 11.3 km/h 85% 0.0 mm 163.00 W/m2
11:45 8.2 °C 5.8 °C 1024.9 hPa Calm   6.4 km/h 85% 0.0 mm 179.00 W/m2
11:50 8.3 °C 5.9 °C 1024.9 hPa Calm   4.8 km/h 85% 0.0 mm 199.00 W/m2
11:55 8.4 °C 6.0 °C 1024.9 hPa ENE 3.2 km/h 3.2 km/h 85% 0.0 mm 216.00 W/m2
12:00 8.5 °C 6.1 °C 1024.6 hPa ENE 3.2 km/h 6.4 km/h 85% 0.0 mm 236.00 W/m2
12:05 8.7 °C 6.1 °C 1024.6 hPa ENE 4.7 km/h 4.8 km/h 84% 0.0 mm 221.00 W/m2
12:10 8.7 °C 6.1 °C 1024.3 hPa East 4.7 km/h 11.3 km/h 84% 0.0 mm 236.00 W/m2
12:15 8.9 °C 6.3 °C 1024.3 hPa East 11.1 km/h 12.9 km/h 84% 0.0 mm 260.00 W/m2
12:20 9.1 °C 6.4 °C 1023.9 hPa ESE 7.9 km/h 8.0 km/h 83% 0.0 mm 265.00 W/m2
12:25 9.5 °C 6.8 °C 1023.9 hPa ENE 3.2 km/h 8.0 km/h 83% 0.0 mm 290.00 W/m2
12:30 9.6 °C 6.7 °C 1023.9 hPa Calm   6.4 km/h 82% 0.0 mm 304.00 W/m2
12:35 9.6 °C 6.3 °C 1023.9 hPa Calm   3.2 km/h 80% 0.0 mm 236.00 W/m2
12:40 9.7 °C 6.4 °C 1023.9 hPa ENE 11.1 km/h 11.3 km/h 80% 0.0 mm 181.00 W/m2
12:45 9.7 °C 6.4 °C 1023.9 hPa ENE 1.4 km/h 14.5 km/h 80% 0.0 mm 188.00 W/m2
12:50 9.6 °C 6.3 °C 1023.9 hPa ENE 11.1 km/h 12.9 km/h 80% 0.0 mm 204.00 W/m2
12:55 9.5 °C 6.0 °C 1023.9 hPa ENE 7.9 km/h 16.1 km/h 79% 0.0 mm 216.00 W/m2
13:00 9.5 °C 6.0 °C 1023.9 hPa NE 6.4 km/h 17.7 km/h 79% 0.0 mm 204.00 W/m2
13:05 9.5 °C 6.0 °C 1023.6 hPa SE 6.4 km/h 9.7 km/h 79% 0.0 mm 186.00 W/m2
13:10 9.6 °C 6.0 °C 1023.9 hPa ENE 4.7 km/h 9.7 km/h 78% 0.0 mm 172.00 W/m2
13:15 9.5 °C 5.9 °C 1023.9 hPa ESE 3.2 km/h 9.7 km/h 78% 0.0 mm 176.00 W/m2
13:20 9.6 °C 6.0 °C 1023.9 hPa ENE 13.0 km/h 12.9 km/h 78% 0.0 mm 190.00 W/m2
13:25 9.7 °C 6.2 °C 1023.9 hPa Calm   4.8 km/h 79% 0.0 mm 199.00 W/m2
13:30 9.7 °C 6.0 °C 1023.9 hPa ESE 7.9 km/h 12.9 km/h 78% 0.0 mm 199.00 W/m2
13:35 9.6 °C 6.0 °C 1023.9 hPa ENE 16.3 km/h 16.1 km/h 78% 0.0 mm 200.00 W/m2
13:40 9.5 °C 5.7 °C 1023.9 hPa ESE 4.7 km/h 11.3 km/h 77% 0.0 mm 204.00 W/m2
13:45 9.6 °C 5.8 °C 1023.9 hPa SE 4.7 km/h 14.5 km/h 77% 0.0 mm 204.00 W/m2
13:50 9.7 °C 6.0 °C 1023.9 hPa ESE 11.1 km/h 12.9 km/h 78% 0.0 mm 258.00 W/m2
13:55 9.9 °C 6.2 °C 1023.9 hPa East 6.4 km/h 6.4 km/h 78% 0.0 mm 283.00 W/m2
14:00 10.3 °C 6.6 °C 1023.9 hPa ESE 7.9 km/h 14.5 km/h 78% 0.0 mm 236.00 W/m2
14:05 10.3 °C 6.3 °C 1023.9 hPa ESE 7.9 km/h 14.5 km/h 76% 0.0 mm 216.00 W/m2
14:10 10.2 °C 6.2 °C 1023.9 hPa NE 4.7 km/h 11.3 km/h 76% 0.0 mm 190.00 W/m2
14:15 10.2 °C 6.3 °C 1023.9 hPa NE 4.7 km/h 9.7 km/h 77% 0.0 mm 192.00 W/m2
14:20 10.1 °C 6.1 °C 1023.9 hPa NE 3.2 km/h 8.0 km/h 76% 0.0 mm 239.00 W/m2
14:25 10.2 °C 6.2 °C 1023.9 hPa Calm   6.4 km/h 76% 0.0 mm 227.00 W/m2
14:30 10.4 °C 6.5 °C 1023.9 hPa Calm   4.8 km/h 77% 0.0 mm 171.00 W/m2
14:35 10.3 °C 6.3 °C 1023.6 hPa ENE 1.4 km/h 16.1 km/h 76% 0.0 mm 121.00 W/m2
14:40 10.3 °C 6.3 °C 1023.6 hPa ENE 3.2 km/h 9.7 km/h 76% 0.0 mm 123.00 W/m2
14:45 10.1 °C 5.9 °C 1023.6 hPa ENE 7.9 km/h 19.3 km/h 75% 0.0 mm 125.00 W/m2
14:50 9.9 °C 5.5 °C 1023.6 hPa ESE 11.1 km/h 11.3 km/h 74% 0.0 mm 127.00 W/m2
14:55 9.9 °C 5.5 °C 1023.6 hPa ESE 3.2 km/h 19.3 km/h 74% 0.0 mm 113.00 W/m2
15:00 9.9 °C 5.5 °C 1023.6 hPa Calm   11.3 km/h 74% 0.0 mm 83.00 W/m2
15:05 9.8 °C 5.6 °C 1023.6 hPa East 3.2 km/h 20.9 km/h 75% 0.0 mm 76.00 W/m2
15:10 9.7 °C 5.5 °C 1023.6 hPa NE 3.2 km/h 6.4 km/h 75% 0.0 mm 70.00 W/m2
15:15 9.6 °C 5.6 °C 1023.6 hPa ENE 3.2 km/h 14.5 km/h 76% 0.0 mm 62.00 W/m2
15:20 9.6 °C 5.6 °C 1023.6 hPa East 7.9 km/h 11.3 km/h 76% 0.0 mm 56.00 W/m2
15:25 9.6 °C 5.6 °C 1023.6 hPa East 1.4 km/h 19.3 km/h 76% 0.0 mm 51.00 W/m2
15:30 9.5 °C 5.5 °C 1023.6 hPa ENE 4.7 km/h 16.1 km/h 76% 0.0 mm 49.00 W/m2
15:49 9.3 °C 5.5 °C 1023.6 hPa ESE 6.4 km/h 11.3 km/h 77% 0.0 mm 40.00 W/m2
15:50 9.3 °C 5.5 °C 1023.6 hPa East 9.7 km/h 11.3 km/h 77% 0.0 mm 40.00 W/m2
15:55 9.2 °C 5.6 °C 1023.6 hPa East 7.9 km/h 8.0 km/h 78% 0.0 mm 35.00 W/m2
16:00 9.2 °C 5.6 °C 1023.6 hPa East 7.9 km/h 14.5 km/h 78% 0.0 mm 28.00 W/m2
16:05 9.2 °C 5.6 °C 1023.6 hPa NE 6.4 km/h 11.3 km/h 78% 0.0 mm 25.00 W/m2
16:10 9.1 °C 5.5 °C 1023.6 hPa East 1.4 km/h 16.1 km/h 78% 0.0 mm 26.00 W/m2
16:15 9.1 °C 5.7 °C 1023.2 hPa NE 1.4 km/h 4.8 km/h 79% 0.0 mm 25.00 W/m2
16:20 9.0 °C 5.6 °C 1023.2 hPa ENE 1.4 km/h 4.8 km/h 79% 0.0 mm 23.00 W/m2
16:25 9.0 °C 5.6 °C 1023.2 hPa ENE 7.9 km/h 9.7 km/h 79% 0.0 mm 19.00 W/m2
16:30 8.9 °C 5.6 °C 1023.2 hPa ENE 6.4 km/h 8.0 km/h 80% 0.0 mm 14.00 W/m2
16:35 8.8 °C 5.5 °C 1023.6 hPa NE 14.3 km/h 16.1 km/h 80% 0.0 mm 11.00 W/m2
16:40 8.8 °C 5.5 °C 1023.2 hPa ENE 4.7 km/h 12.9 km/h 80% 0.0 mm 7.00 W/m2
16:45 8.7 °C 5.4 °C 1023.6 hPa Calm   16.1 km/h 80% 0.0 mm 0.00 W/m2
16:50 8.6 °C 5.3 °C 1023.2 hPa NE 7.9 km/h 12.9 km/h 80% 0.0 mm 0.00 W/m2
16:55 8.5 °C 5.2 °C 1023.2 hPa Calm   16.1 km/h 80% 0.0 mm 0.00 W/m2
17:00 8.5 °C 5.4 °C 1023.2 hPa ENE 9.7 km/h 11.3 km/h 81% 0.0 mm 0.00 W/m2
17:05 8.4 °C 5.3 °C 1023.2 hPa NE 4.7 km/h 8.0 km/h 81% 0.0 mm 0.00 W/m2
17:10 8.4 °C 5.3 °C 1023.2 hPa East 7.9 km/h 11.3 km/h 81% 0.0 mm 0.00 W/m2
17:15 8.3 °C 5.2 °C 1023.2 hPa NNE 9.7 km/h 11.3 km/h 81% 0.0 mm 0.00 W/m2
17:20 8.3 °C 5.2 °C 1023.2 hPa ENE 9.7 km/h 16.1 km/h 81% 0.0 mm 0.00 W/m2
17:25 8.3 °C 5.2 °C 1023.2 hPa ENE 7.9 km/h 11.3 km/h 81% 0.0 mm 0.00 W/m2
17:30 8.2 °C 5.1 °C 1023.2 hPa East 7.9 km/h 9.7 km/h 81% 0.0 mm 0.00 W/m2
17:35 8.2 °C 5.3 °C 1023.2 hPa ESE 3.2 km/h 14.5 km/h 82% 0.0 mm 0.00 W/m2
17:40 8.2 °C 5.3 °C 1023.2 hPa East 3.2 km/h 8.0 km/h 82% 0.0 mm 0.00 W/m2
17:45 8.1 °C 5.2 °C 1023.6 hPa ESE 6.4 km/h 12.9 km/h 82% 0.0 mm 0.00 W/m2
17:50 8.1 °C 5.2 °C 1023.6 hPa ESE 4.7 km/h 16.1 km/h 82% 0.0 mm 0.00 W/m2
17:55 8.1 °C 5.4 °C 1023.6 hPa East 4.7 km/h 14.5 km/h 83% 0.0 mm 0.00 W/m2
18:00 8.1 °C 5.4 °C 1023.6 hPa East 3.2 km/h 11.3 km/h 83% 0.0 mm 0.00 W/m2
18:05 8.0 °C 5.3 °C 1023.6 hPa NNE 3.2 km/h 12.9 km/h 83% 0.0 mm 0.00 W/m2
18:10 8.0 °C 5.3 °C 1023.6 hPa Calm   8.0 km/h 83% 0.0 mm 0.00 W/m2
18:15 8.0 °C 5.3 °C 1023.6 hPa NNE 4.7 km/h 4.8 km/h 83% 0.0 mm 0.00 W/m2
18:20 8.0 °C 5.5 °C 1023.6 hPa ENE 9.7 km/h 9.7 km/h 84% 0.0 mm 0.00 W/m2
18:25 7.9 °C 5.4 °C 1023.6 hPa ESE 4.7 km/h 6.4 km/h 84% 0.0 mm 0.00 W/m2
18:30 7.9 °C 5.4 °C 1023.6 hPa ESE 4.7 km/h 14.5 km/h 84% 0.0 mm 0.00 W/m2
18:35 8.0 °C 5.5 °C 1023.6 hPa ENE 7.9 km/h 11.3 km/h 84% 0.0 mm 0.00 W/m2
18:40 7.9 °C 5.4 °C 1023.6 hPa ENE 1.4 km/h 9.7 km/h 84% 0.0 mm 0.00 W/m2
18:45 7.9 °C 5.4 °C 1023.6 hPa ESE 1.4 km/h 6.4 km/h 84% 0.0 mm 0.00 W/m2
18:50 8.0 °C 5.5 °C 1023.6 hPa Calm   4.8 km/h 84% 0.0 mm 0.00 W/m2
18:55 7.9 °C 5.4 °C 1023.6 hPa ENE 3.2 km/h 11.3 km/h 84% 0.0 mm 0.00 W/m2
19:00 7.9 °C 5.5 °C 1023.6 hPa East 13.0 km/h 14.5 km/h 85% 0.0 mm 0.00 W/m2
19:05 7.9 °C 5.5 °C 1023.6 hPa ENE 3.2 km/h 8.0 km/h 85% 0.0 mm 0.00 W/m2
19:10 7.9 °C 5.5 °C 1023.9 hPa East 3.2 km/h 8.0 km/h 85% 0.0 mm 0.00 W/m2
19:15 7.9 °C 5.5 °C 1023.6 hPa East 1.4 km/h 6.4 km/h 85% 0.0 mm 0.00 W/m2
19:20 7.9 °C 5.5 °C 1023.6 hPa NE 11.1 km/h 16.1 km/h 85% 0.0 mm 0.00 W/m2
19:25 7.9 °C 5.5 °C 1023.6 hPa East 1.4 km/h 11.3 km/h 85% 0.0 mm 0.00 W/m2
19:30 7.9 °C 5.5 °C 1023.6 hPa ESE 6.4 km/h 11.3 km/h 85% 0.0 mm 0.00 W/m2
19:35 7.9 °C 5.7 °C 1023.9 hPa Calm   11.3 km/h 86% 0.0 mm 0.00 W/m2
19:40 7.8 °C 5.6 °C 1023.6 hPa East 3.2 km/h 8.0 km/h 86% 0.0 mm 0.00 W/m2
19:45 7.8 °C 5.6 °C 1023.6 hPa NE 4.7 km/h 17.7 km/h 86% 0.0 mm 0.00 W/m2
19:50 7.8 °C 5.6 °C 1023.6 hPa East 6.4 km/h 14.5 km/h 86% 0.0 mm 0.00 W/m2
19:55 7.8 °C 5.6 °C 1023.6 hPa ENE 1.4 km/h 16.1 km/h 86% 0.0 mm 0.00 W/m2
20:00 7.8 °C 5.6 °C 1023.6 hPa ESE 7.9 km/h 12.9 km/h 86% 0.0 mm 0.00 W/m2
20:05 7.8 °C 5.6 °C 1023.6 hPa ENE 4.7 km/h 14.5 km/h 86% 0.0 mm 0.00 W/m2
20:10 7.8 °C 5.6 °C 1023.6 hPa ESE 1.4 km/h 3.2 km/h 86% 0.0 mm 0.00 W/m2
20:15 7.7 °C 5.7 °C 1023.6 hPa ENE 3.2 km/h 11.3 km/h 87% 0.0 mm 0.00 W/m2
20:20 7.8 °C 5.8 °C 1023.6 hPa ESE 3.2 km/h 11.3 km/h 87% 0.0 mm 0.00 W/m2
20:25 7.7 °C 5.7 °C 1023.6 hPa Calm   14.5 km/h 87% 0.0 mm 0.00 W/m2
20:30 7.7 °C 5.7 °C 1023.6 hPa ENE 7.9 km/h 9.7 km/h 87% 0.0 mm 0.00 W/m2
20:35 7.7 °C 5.7 °C 1023.6 hPa East 3.2 km/h 16.1 km/h 87% 0.0 mm 0.00 W/m2
20:40 7.7 °C 5.7 °C 1023.6 hPa ESE 3.2 km/h 11.3 km/h 87% 0.0 mm 0.00 W/m2
20:45 7.7 °C 5.7 °C 1023.6 hPa East 3.2 km/h 14.5 km/h 87% 0.0 mm 0.00 W/m2
20:50 7.7 °C 5.7 °C 1023.6 hPa ESE 4.7 km/h 11.3 km/h 87% 0.0 mm 0.00 W/m2
20:55 7.7 °C 5.7 °C 1023.6 hPa ENE 13.0 km/h 16.1 km/h 87% 0.0 mm 0.00 W/m2
21:00 7.8 °C 5.8 °C 1023.6 hPa SE 9.7 km/h 12.9 km/h 87% 0.0 mm 0.00 W/m2
21:05 7.8 °C 5.6 °C 1023.9 hPa East 1.4 km/h 17.7 km/h 86% 0.0 mm 0.00 W/m2
21:10 7.8 °C 5.6 °C 1023.6 hPa ENE 4.7 km/h 20.9 km/h 86% 0.0 mm 0.00 W/m2
21:15 7.8 °C 5.6 °C 1023.6 hPa NE 6.4 km/h 14.5 km/h 86% 0.0 mm 0.00 W/m2
21:20 7.8 °C 5.6 °C 1023.6 hPa NNE 3.2 km/h 16.1 km/h 86% 0.0 mm 0.00 W/m2
21:25 7.7 °C 5.5 °C 1023.6 hPa East 17.7 km/h 17.7 km/h 86% 0.0 mm 0.00 W/m2
21:30 7.7 °C 5.5 °C 1023.6 hPa NE 1.4 km/h 16.1 km/h 86% 0.0 mm 0.00 W/m2
21:35 7.7 °C 5.5 °C 1023.9 hPa East 3.2 km/h 8.0 km/h 86% 0.0 mm 0.00 W/m2
21:40 7.7 °C 5.5 °C 1023.6 hPa East 14.3 km/h 16.1 km/h 86% 0.0 mm 0.00 W/m2
21:45 7.7 °C 5.5 °C 1023.6 hPa ENE 3.2 km/h 16.1 km/h 86% 0.0 mm 0.00 W/m2
21:50 7.8 °C 5.6 °C 1023.6 hPa Calm   16.1 km/h 86% 0.0 mm 0.00 W/m2
21:55 7.8 °C 5.6 °C 1023.6 hPa ENE 13.0 km/h 17.7 km/h 86% 0.0 mm 0.00 W/m2
22:00 7.7 °C 5.3 °C 1023.6 hPa SE 7.9 km/h 11.3 km/h 85% 0.0 mm 0.00 W/m2
22:05 7.7 °C 5.3 °C 1023.6 hPa ENE 1.4 km/h 4.8 km/h 85% 0.0 mm 0.00 W/m2
22:10 7.7 °C 5.3 °C 1023.6 hPa NNE 3.2 km/h 11.3 km/h 85% 0.0 mm 0.00 W/m2
22:15 7.7 °C 5.3 °C 1023.6 hPa ESE 11.1 km/h 17.7 km/h 85% 0.0 mm 0.00 W/m2
22:20 7.7 °C 5.3 °C 1023.6 hPa East 7.9 km/h 22.5 km/h 85% 0.0 mm 0.00 W/m2
22:25 7.7 °C 5.3 °C 1023.6 hPa ENE 9.7 km/h 22.5 km/h 85% 0.0 mm 0.00 W/m2
22:30 7.7 °C 5.3 °C 1023.6 hPa NE 11.1 km/h 11.3 km/h 85% 0.0 mm 0.00 W/m2
22:35 7.7 °C 5.3 °C 1023.6 hPa ENE 6.4 km/h 19.3 km/h 85% 0.0 mm 0.00 W/m2
22:40 7.7 °C 5.3 °C 1023.6 hPa East 6.4 km/h 19.3 km/h 85% 0.0 mm 0.00 W/m2
22:45 7.7 °C 5.3 °C 1023.6 hPa East 3.2 km/h 9.7 km/h 85% 0.0 mm 0.00 W/m2
22:50 7.7 °C 5.3 °C 1023.6 hPa East 4.7 km/h 17.7 km/h 85% 0.0 mm 0.00 W/m2
22:55 7.6 °C 5.2 °C 1023.6 hPa ESE 7.9 km/h 14.5 km/h 85% 0.0 mm 0.00 W/m2
23:00 7.7 °C 5.3 °C 1023.6 hPa ESE 1.4 km/h 16.1 km/h 85% 0.0 mm 0.00 W/m2
23:05 7.6 °C 5.2 °C 1023.6 hPa NE 6.4 km/h 12.9 km/h 85% 0.0 mm 0.00 W/m2
23:10 7.6 °C 5.2 °C 1023.6 hPa NE 3.2 km/h 17.7 km/h 85% 0.0 mm 0.00 W/m2
23:15 7.6 °C 5.2 °C 1023.6 hPa NE 13.0 km/h 14.5 km/h 85% 0.0 mm 0.00 W/m2
23:20 7.6 °C 5.2 °C 1023.6 hPa NE 3.2 km/h 11.3 km/h 85% 0.0 mm 0.00 W/m2
23:25 7.6 °C 5.2 °C 1023.9 hPa ENE 4.7 km/h 17.7 km/h 85% 0.0 mm 0.00 W/m2
23:30 7.6 °C 5.2 °C 1023.6 hPa East 3.2 km/h 14.5 km/h 85% 0.0 mm 0.00 W/m2
23:35 7.6 °C 5.2 °C 1023.6 hPa NNE 4.7 km/h 16.1 km/h 85% 0.0 mm 0.00 W/m2
23:40 7.6 °C 5.2 °C 1023.6 hPa NE 3.2 km/h 11.3 km/h 85% 0.0 mm 0.00 W/m2
23:45 7.6 °C 5.2 °C 1023.6 hPa East 4.7 km/h 14.5 km/h 85% 0.0 mm 0.00 W/m2
23:50 7.5 °C 5.1 °C 1023.9 hPa ESE 3.2 km/h 14.5 km/h 85% 0.0 mm 0.00 W/m2
23:55 7.6 °C 5.4 °C 1023.6 hPa East 1.4 km/h 14.5 km/h 86% 0.0 mm 0.00 W/m2